createdAt,value
2023-04-10T00:01:39.137Z,10.10
2023-04-10T00:06:43.531Z,9.53
2023-04-10T00:11:46.362Z,9.32
2023-04-10T00:16:49.381Z,8.60
2023-04-10T00:21:53.572Z,8.77
2023-04-10T00:26:56.897Z,8.87
2023-04-10T00:31:59.733Z,8.40
2023-04-10T00:37:03.998Z,9.20
2023-04-10T00:42:09.433Z,8.33
2023-04-10T00:47:14.039Z,8.70
2023-04-10T00:52:18.348Z,7.63
2023-04-10T00:57:21.311Z,8.05
2023-04-10T01:02:24.194Z,8.60
2023-04-10T01:07:37.450Z,7.33
2023-04-10T01:13:05.983Z,7.78
2023-04-10T01:18:12.593Z,8.02
2023-04-10T01:23:46.804Z,7.77
2023-04-10T01:29:01.597Z,7.90
2023-04-10T01:34:09.561Z,8.45
2023-04-10T01:39:13.437Z,8.03
2023-04-10T01:44:18.708Z,7.78
2023-04-10T01:49:22.022Z,7.60
2023-04-10T01:54:25.823Z,8.10
2023-04-10T01:59:31.270Z,7.15
2023-04-10T02:04:35.006Z,7.97
2023-04-10T02:09:43.383Z,7.35
2023-04-10T02:14:48.870Z,7.63
2023-04-10T02:19:52.366Z,6.57
2023-04-10T02:24:55.446Z,7.80
2023-04-10T02:29:59.720Z,7.35
2023-04-10T02:35:03.561Z,6.97
2023-04-10T02:40:08.132Z,7.73
2023-04-10T02:45:23.956Z,7.85
2023-04-10T02:50:29.593Z,7.57
2023-04-10T02:55:32.532Z,7.10
2023-04-10T03:00:37.314Z,7.57
2023-04-10T03:05:52.017Z,7.50
2023-04-10T03:11:01.141Z,6.93
2023-04-10T03:16:06.647Z,7.60
2023-04-10T03:21:09.710Z,7.70
2023-04-10T03:26:12.662Z,7.13
2023-04-10T03:31:17.064Z,6.88
2023-04-10T03:36:21.329Z,7.63
2023-04-10T03:41:25.802Z,7.35
2023-04-10T03:46:30.870Z,6.72
2023-04-10T03:51:34.480Z,6.77
2023-04-10T03:56:37.773Z,6.38
2023-04-10T04:01:42.085Z,6.68
2023-04-10T04:06:47.213Z,5.85
2023-04-10T04:11:56.338Z,6.20
2023-04-10T04:17:26.572Z,6.38
2023-04-10T04:22:34.531Z,5.63
2023-04-10T04:28:09.860Z,6.15
2023-04-10T04:33:32.744Z,5.80
2023-04-10T04:39:03.100Z,6.13
2023-04-10T04:44:13.216Z,5.57
2023-04-10T04:49:35.863Z,5.65
2023-04-10T04:54:47.350Z,6.13
2023-04-10T05:00:06.284Z,5.82
2023-04-10T05:05:36.671Z,5.67
2023-04-10T05:10:59.872Z,5.57
2023-04-10T05:16:21.918Z,5.60
2023-04-10T05:22:01.455Z,5.45
2023-04-10T05:27:23.151Z,5.70
2023-04-10T05:32:43.661Z,4.93
2023-04-10T05:38:02.870Z,5.70
2023-04-10T05:43:13.882Z,5.60
2023-04-10T05:48:38.916Z,5.72
2023-04-10T05:54:03.433Z,5.55
2023-04-10T05:59:44.815Z,5.43
2023-04-10T06:05:06.775Z,5.47
2023-04-10T06:10:12.662Z,5.43
2023-04-10T06:15:15.658Z,6.18
2023-04-10T06:20:18.948Z,6.05
2023-04-10T06:25:23.225Z,5.67
2023-04-10T06:30:26.297Z,6.03
2023-04-10T06:35:29.304Z,5.85
2023-04-10T06:40:34.194Z,6.23
2023-04-10T06:45:37.104Z,6.00
2023-04-10T06:50:40.030Z,5.63
2023-04-10T06:55:44.258Z,5.90
2023-04-10T07:00:47.155Z,5.68
2023-04-10T07:05:50.006Z,5.65
2023-04-10T07:10:54.945Z,6.05
2023-04-10T07:15:58.902Z,5.90
2023-04-10T07:21:02.318Z,5.97
2023-04-10T07:26:07.085Z,6.22
2023-04-10T07:31:10.635Z,6.10
2023-04-10T07:36:13.590Z,5.65
2023-04-10T07:41:17.878Z,5.90
2023-04-10T07:46:20.872Z,5.43
2023-04-10T07:51:23.886Z,5.53
2023-04-10T07:56:31.313Z,5.95
2023-04-10T08:01:34.520Z,6.20
2023-04-10T08:06:37.371Z,6.55
2023-04-10T08:11:41.549Z,6.63
2023-04-10T08:16:44.476Z,5.38
2023-04-10T08:21:47.338Z,5.85
2023-04-10T08:26:51.527Z,5.90
2023-04-10T08:31:54.557Z,5.97
2023-04-10T08:36:58.659Z,6.30
2023-04-10T08:42:03.195Z,5.72
2023-04-10T08:47:07.155Z,6.73
2023-04-10T08:52:10.331Z,5.83
2023-04-10T08:57:18.326Z,6.38
2023-04-10T09:02:21.887Z,6.05
2023-04-10T09:07:24.872Z,6.43
2023-04-10T09:12:29.093Z,5.93
2023-04-10T09:17:32.148Z,6.13
2023-04-10T09:22:36.114Z,6.68
2023-04-10T09:27:42.720Z,6.32
2023-04-10T09:32:46.841Z,6.18
2023-04-10T09:37:49.713Z,6.93
2023-04-10T09:42:55.953Z,5.47
2023-04-10T09:48:06.687Z,5.67
2023-04-10T09:53:10.450Z,5.67
2023-04-10T09:58:16.143Z,5.75
2023-04-10T10:03:21.160Z,6.50
2023-04-10T10:08:24.777Z,6.13
2023-04-10T10:13:30.439Z,5.97
2023-04-10T10:18:38.402Z,6.13
2023-04-10T10:23:41.795Z,6.03
2023-04-10T10:28:46.360Z,6.10
2023-04-10T10:33:49.336Z,5.85
2023-04-10T10:38:57.838Z,5.93
2023-04-10T10:44:08.580Z,5.80
2023-04-10T10:49:11.658Z,6.50
2023-04-10T10:54:33.608Z,6.27
2023-04-10T10:59:57.308Z,5.93
2023-04-10T11:05:01.244Z,7.07
2023-04-10T11:10:04.210Z,7.50
2023-04-10T11:15:09.789Z,6.80
2023-04-10T11:20:12.972Z,7.43
2023-04-10T11:25:15.902Z,7.25
2023-04-10T11:30:30.883Z,7.07
2023-04-10T11:35:34.183Z,7.43
2023-04-10T11:40:37.196Z,8.80
2023-04-10T11:45:42.211Z,8.10
2023-04-10T11:50:45.522Z,8.30
2023-04-10T11:55:48.761Z,8.10
2023-04-10T12:01:03.322Z,7.75
2023-04-10T12:06:08.385Z,8.30
2023-04-10T12:11:11.754Z,7.60
2023-04-10T12:16:16.243Z,6.88
2023-04-10T12:21:19.641Z,6.57
2023-04-10T12:26:22.489Z,6.03
2023-04-10T12:31:30.755Z,5.23
2023-04-10T12:36:35.016Z,5.57
2023-04-10T12:41:38.542Z,4.60
2023-04-10T12:46:44.490Z,4.70
2023-04-10T12:51:48.507Z,5.47
2023-04-10T12:56:51.472Z,5.27
2023-04-10T13:01:56.175Z,5.18
2023-04-10T13:06:59.169Z,4.65
2023-04-10T13:12:02.084Z,5.45
2023-04-10T13:17:06.269Z,5.07
2023-04-10T13:22:09.168Z,5.00
2023-04-10T13:27:12.113Z,5.10
2023-04-10T13:32:16.362Z,5.93
2023-04-10T13:37:20.272Z,5.53
2023-04-10T13:42:23.224Z,6.65
2023-04-10T13:47:27.566Z,5.93
2023-04-10T13:52:30.416Z,5.95
2023-04-10T13:57:34.137Z,5.90
2023-04-10T14:02:38.663Z,6.15
2023-04-10T14:07:41.605Z,4.93
2023-04-10T14:12:44.470Z,5.97
2023-04-10T14:17:48.713Z,6.47
2023-04-10T14:22:51.553Z,6.30
2023-04-10T14:27:54.436Z,6.65
2023-04-10T14:32:58.685Z,6.53
2023-04-10T14:38:02.229Z,5.85
2023-04-10T14:43:05.046Z,5.95
2023-04-10T14:48:11.136Z,6.60
2023-04-10T14:53:14.036Z,6.28
2023-04-10T14:58:16.870Z,7.25
2023-04-10T15:03:23.785Z,7.00
2023-04-10T15:08:27.961Z,6.63
2023-04-10T15:13:30.772Z,7.30
2023-04-10T15:18:34.943Z,6.53
2023-04-10T15:23:37.765Z,6.67
2023-04-10T15:28:40.908Z,6.60
2023-04-10T15:33:45.094Z,7.55
2023-04-10T15:38:49.923Z,8.30
2023-04-10T15:43:53.614Z,8.15
2023-04-10T15:48:57.933Z,7.35
2023-04-10T15:54:00.744Z,8.57
2023-04-10T15:59:03.510Z,7.93
2023-04-10T16:04:07.781Z,8.20
2023-04-10T16:09:24.097Z,7.70
2023-04-10T16:14:27.482Z,8.60
2023-04-10T16:19:32.476Z,7.37
2023-04-10T16:24:35.356Z,7.80
2023-04-10T16:29:38.253Z,7.10
2023-04-10T16:34:42.408Z,7.03
2023-04-10T16:39:45.305Z,7.45
2023-04-10T16:44:48.129Z,8.10
2023-04-10T16:49:52.336Z,8.07
2023-04-10T16:54:55.368Z,8.10
2023-04-10T16:59:58.959Z,7.60
2023-04-10T17:05:03.093Z,6.85
2023-04-10T17:10:06.658Z,6.65
2023-04-10T17:15:10.104Z,7.90
2023-04-10T17:20:14.736Z,6.05
2023-04-10T17:25:17.836Z,5.50
2023-04-10T17:30:20.798Z,5.47
2023-04-10T17:35:25.480Z,6.07
2023-04-10T17:40:28.957Z,5.47
2023-04-10T17:45:31.752Z,5.65
2023-04-10T17:50:36.348Z,5.70
2023-04-10T17:55:39.722Z,6.10
2023-04-10T18:00:43.636Z,5.97
2023-04-10T18:05:48.034Z,4.75
2023-04-10T18:10:50.870Z,4.57
2023-04-10T18:15:53.712Z,4.60
2023-04-10T18:20:57.954Z,4.40
2023-04-10T18:26:01.106Z,4.00
2023-04-10T18:31:03.930Z,3.85
2023-04-10T18:36:10.850Z,3.58
2023-04-10T18:41:14.117Z,3.65
2023-04-10T18:46:16.879Z,3.65
2023-04-10T18:51:21.480Z,3.67
2023-04-10T18:56:24.245Z,3.28
2023-04-10T19:01:27.114Z,3.20
2023-04-10T19:06:31.262Z,3.08
2023-04-10T19:11:34.065Z,3.17
2023-04-10T19:16:36.829Z,3.25
2023-04-10T19:21:41.015Z,6.55
2023-04-10T19:26:44.099Z,3.35
2023-04-10T19:31:47.007Z,4.38
2023-04-10T19:36:51.236Z,3.70
2023-04-10T19:41:56.171Z,4.00
2023-04-10T19:46:59.114Z,4.72
2023-04-10T19:52:03.381Z,4.10
2023-04-10T19:57:06.090Z,4.32
2023-04-10T20:02:10.271Z,3.90
2023-04-10T20:07:14.578Z,4.27
2023-04-10T20:12:17.432Z,3.95
2023-04-10T20:17:20.365Z,3.67
2023-04-10T20:22:25.323Z,4.30
2023-04-10T20:27:29.197Z,4.00
2023-04-10T20:32:32.097Z,4.47
2023-04-10T20:37:36.461Z,3.97
2023-04-10T20:42:39.271Z,4.87
2023-04-10T20:47:42.131Z,4.20
2023-04-10T20:52:46.288Z,5.22
2023-04-10T20:57:49.119Z,5.53
2023-04-10T21:02:51.966Z,4.88
2023-04-10T21:07:56.137Z,5.70
2023-04-10T21:12:58.882Z,5.68
2023-04-10T21:18:01.720Z,5.95
2023-04-10T21:23:05.950Z,3.25
2023-04-10T21:28:08.729Z,5.37
2023-04-10T21:33:11.515Z,0.57
2023-04-10T21:38:15.722Z,1.33
2023-04-10T21:43:18.565Z,1.25
2023-04-10T21:48:21.558Z,0.40
2023-04-10T21:53:25.634Z,0.10
2023-04-10T21:58:28.378Z,0.35
2023-04-10T22:03:31.528Z,1.05
2023-04-10T22:08:38.234Z,0.73
2023-04-10T22:13:41.261Z,1.48
2023-04-10T22:18:44.059Z,3.10
2023-04-10T22:23:48.250Z,4.25
2023-04-10T22:28:51.031Z,0.50
2023-04-10T22:33:53.886Z,2.30
2023-04-10T22:38:58.097Z,0.73
2023-04-10T22:44:01.086Z,1.60
2023-04-10T22:49:04.084Z,1.97
2023-04-10T22:54:08.277Z,1.50
2023-04-10T22:59:11.360Z,0.65
2023-04-10T23:04:14.302Z,1.07
2023-04-10T23:09:18.576Z,1.77
2023-04-10T23:14:21.320Z,0.30
2023-04-10T23:19:24.055Z,0.73
2023-04-10T23:24:28.199Z,1.70
2023-04-10T23:29:30.901Z,1.85
2023-04-10T23:34:33.730Z,0.75
2023-04-10T23:39:37.787Z,1.10
2023-04-10T23:44:41.131Z,0.20
2023-04-10T23:49:43.967Z,0.20
2023-04-10T23:54:48.165Z,0.90
2023-04-10T23:59:51.703Z,0.60
